Accueil
METAR-TAF:

METAR-TAF

Aéroports :

Aéroport international Léopold-Sédar-Senghor

Dakar, Sénégal

latitude: 14-44N, longitude: 017-30W, altitude: 27 m

Observation

Le bulletin a été fait il y a 57 minutes, à 00:00 UTC
Vent 6 kt de nord
Température 27°C
Humidité 89%
Pression 1012 hPa
Visibilité: 8000 m

METAR: GOOY 220000Z 36006KT 8000 NSC 27/25 Q1012

Heure: 00:57 (00:57 UTC)

Prévision

Le bulletin a été fait il y a 1 heure et 27 minutes, à 23:30 UTC
Prévision valable du 22 à 00 UTC au 23 à 06 UTC
Vent 8 kt de nord/nord-ouest
Visibilité 10 km ou plus
pas de nuages en-dessous de 1500 mètres et pas de cumulonimbus.

TAF: GOOY 212330Z 2200/2306 34008KT CAVOK

Observations et prévisions météorologiques de plus de 4000 aéroports (messages METAR et TAF).

Les stations disponibles sont représentées par des disques jaunes et rouges sur la carte.

Passer la souris dessus pour voir le nom de la station.

Cliquer dessus pour voir les observations et prévisions météorologiques.

Pour changer de carte: cliquez sur les boutons verts avec une croix noire pour zoomer, sur le bouton vert avec un tiret pour effectuer un zoom arrière, ou sur les flèches vertes pour les cartes adjacentes.


METAR-TAF: